Time;durP1;ratioP1;P1;durP2;ratioP2;P2;SDS_P1;SDS_P2;PMS_P1;PMS_P2;Temp;Humidity;BMP_temperature;BMP_pressure;BME280_temperature;BME280_humidity;BME280_pressure;Samples;Min_cycle;Max_cycle;Signal;HPM_P1;HPM_P2
2024/04/20 00:04:18;;;;;;;19.10;1.90;;;6.40;99.90;;;;;;22075407;26;20001;-77
2024/04/20 00:14:19;;;;;;;18.13;2.20;;;6.40;99.90;;;;;;22071748;26;20012;-77
2024/04/20 00:24:20;;;;;;;15.65;2.63;;;6.50;99.90;;;;;;22087634;26;20083;-74
2024/04/20 00:34:21;;;;;;;9.82;1.52;;;6.50;99.90;;;;;;22085248;26;19996;-75
2024/04/20 00:44:23;;;;;;;13.75;2.22;;;6.50;99.90;;;;;;22084198;26;20001;-74
2024/04/20 00:54:27;;;;;;;22.42;2.95;;;6.40;99.90;;;;;;22083328;26;19997;-74
2024/04/20 01:04:28;;;;;;;13.52;2.00;;;6.40;98.30;;;;;;22079191;26;20001;-75
2024/04/20 01:14:28;;;;;;;12.75;1.63;;;6.50;92.90;;;;;;22085990;26;19997;-74
2024/04/20 01:24:31;;;;;;;12.65;2.47;;;6.60;52.90;;;;;;22194358;26;20000;-75
2024/04/20 01:34:33;;;;;;;15.02;3.15;;;6.50;38.50;;;;;;22224482;26;20004;-77
2024/04/20 01:44:34;;;;;;;9.73;1.73;;;6.50;37.90;;;;;;22227464;26;19996;-77
2024/04/20 01:54:35;;;;;;;14.50;2.00;;;6.40;39.20;;;;;;22205903;26;20073;-77
2024/04/20 02:04:36;;;;;;;10.27;1.50;;;6.50;33.80;;;;;;22199294;26;20506;-77
2024/04/20 02:14:38;;;;;;;22.10;2.03;;;6.50;37.80;;;;;;22202149;26;20448;-77
2024/04/20 02:24:39;;;;;;;9.57;1.70;;;6.50;26.10;;;;;;22220433;26;20047;-77
2024/04/20 02:34:44;;;;;;;14.20;2.00;;;6.50;29.40;;;;;;22190086;26;20000;-76
2024/04/20 02:44:45;;;;;;;12.93;2.03;;;6.40;40.20;;;;;;22216784;26;20008;-76
2024/04/20 02:54:46;;;;;;;18.58;2.17;;;6.50;28.60;;;;;;22194817;26;20079;-77
2024/04/20 03:04:47;;;;;;;12.65;2.17;;;6.50;26.00;;;;;;22188637;26;20054;-77
2024/04/20 03:14:51;;;;;;;13.18;1.80;;;6.60;25.10;;;;;;22193896;26;19996;-77
2024/04/20 03:24:52;;;;;;;9.35;1.88;;;6.60;29.30;;;;;;22174320;26;20015;-77
2024/04/20 03:34:53;;;;;;;12.85;2.63;;;6.50;40.90;;;;;;22192194;26;20005;-77
2024/04/20 03:44:54;;;;;;;12.90;1.75;;;6.50;49.90;;;;;;22199151;26;20000;-76
2024/04/20 03:54:57;;;;;;;17.13;2.13;;;6.50;59.50;;;;;;22193943;26;20016;-74
2024/04/20 04:04:58;;;;;;;9.18;1.60;;;6.50;60.10;;;;;;22200668;26;20004;-74
2024/04/20 04:14:59;;;;;;;11.85;1.50;;;6.40;68.70;;;;;;22189994;26;20001;-74
2024/04/20 04:25:00;;;;;;;13.75;1.52;;;6.40;74.50;;;;;;22211769;26;20012;-74
2024/04/20 04:35:01;;;;;;;12.32;1.73;;;6.40;73.70;;;;;;22191481;26;20340;-75
2024/04/20 04:45:03;;;;;;;8.15;1.45;;;6.50;54.70;;;;;;22195442;26;20011;-74
2024/04/20 04:55:04;;;;;;;9.55;1.67;;;6.60;37.00;;;;;;22232511;26;20015;-74
2024/04/20 05:05:05;;;;;;;16.10;2.28;;;6.60;26.90;;;;;;22225807;26;20015;-76
2024/04/20 05:15:06;;;;;;;10.70;1.50;;;6.70;18.50;;;;;;22248218;26;20002;-76
2024/04/20 05:25:07;;;;;;;8.20;1.50;;;6.70;6.30;;;;;;22257010;26;19995;-76
2024/04/20 05:35:09;;;;;;;10.63;1.30;;;6.90;1.00;;;;;;22218749;26;20445;-75
2024/04/20 05:45:16;;;;;;;10.65;1.95;;;6.90;1.00;;;;;;22156363;26;20007;-75
2024/04/20 05:55:17;;;;;;;8.90;1.80;;;7.00;1.00;;;;;;22189249;26;20004;-75
2024/04/20 06:05:18;;;;;;;10.35;1.58;;;7.00;1.00;;;;;;22195343;26;20440;-74
2024/04/20 06:15:19;;;;;;;15.75;1.92;;;7.00;1.00;;;;;;22192018;26;20026;-75
2024/04/20 06:25:20;;;;;;;7.05;0.93;;;7.20;1.00;;;;;;22166886;26;20043;-75
2024/04/20 06:35:21;;;;;;;12.50;2.03;;;7.20;1.00;;;;;;22208613;26;20023;-76
2024/04/20 06:45:23;;;;;;;7.03;1.40;;;7.10;1.00;;;;;;22217387;26;20460;-75
2024/04/20 06:55:24;;;;;;;10.40;1.40;;;7.10;1.00;;;;;;22187099;26;19992;-75
2024/04/20 07:05:26;;;;;;;5.93;1.00;;;7.30;1.00;;;;;;22197723;26;20023;-79
2024/04/20 07:15:27;;;;;;;8.00;1.02;;;7.40;1.00;;;;;;22189222;26;20392;-79
2024/04/20 07:25:28;;;;;;;5.18;1.17;;;8.00;1.00;;;;;;22210970;26;20594;-80
2024/04/20 07:35:34;;;;;;;6.55;1.10;;;8.40;1.00;;;;;;22184902;26;20004;-83
2024/04/20 07:57:33;;;;;;;9.05;1.15;;;8.80;1.00;;;;;;22218303;26;20324;-82
2024/04/20 08:07:36;;;;;;;10.32;1.20;;;8.90;1.00;;;;;;22194090;26;20451;-78
2024/04/20 08:17:38;;;;;;;12.38;1.63;;;8.90;1.00;;;;;;22138639;26;20513;-76
2024/04/20 08:27:39;;;;;;;11.95;2.33;;;9.30;1.00;;;;;;22215455;26;20073;-76
2024/04/20 08:37:42;;;;;;;11.90;1.50;;;9.40;1.00;;;;;;22147779;26;19993;-77
2024/04/20 08:47:47;;;;;;;7.18;1.00;;;9.50;1.00;;;;;;22195761;26;20059;-76
2024/04/20 08:57:48;;;;;;;7.45;1.00;;;9.70;1.00;;;;;;22211248;26;20004;-77
2024/04/20 09:07:49;;;;;;;6.90;0.80;;;9.50;1.00;;;;;;22197451;26;20001;-77
2024/04/20 09:17:50;;;;;;;11.82;1.70;;;9.50;1.00;;;;;;22199991;26;19996;-77
2024/04/20 09:27:51;;;;;;;10.18;2.08;;;10.30;1.00;;;;;;22164185;26;20015;-81
2024/04/20 09:37:53;;;;;;;5.88;1.13;;;10.30;1.00;;;;;;22205107;26;20015;-78
2024/04/20 09:47:57;;;;;;;2.63;0.40;;;11.20;1.00;;;;;;22227681;26;20011;-79
2024/04/20 09:58:02;;;;;;;4.07;0.70;;;10.40;1.00;;;;;;22210353;26;20014;-79
2024/04/20 10:08:05;;;;;;;7.55;1.00;;;10.00;1.00;;;;;;22220251;26;19996;-79
2024/04/20 10:18:07;;;;;;;9.77;1.30;;;10.90;1.00;;;;;;22185604;26;20074;-80
2024/04/20 10:28:08;;;;;;;8.23;1.58;;;11.00;1.00;;;;;;22225696;26;19992;-79
2024/04/20 10:38:09;;;;;;;7.07;1.42;;;10.40;1.00;;;;;;22204330;26;20019;-79
2024/04/20 10:48:14;;;;;;;8.73;1.23;;;9.80;1.00;;;;;;22207761;26;20444;-81
2024/04/20 10:58:15;;;;;;;6.32;1.30;;;9.50;1.00;;;;;;22194677;26;20028;-76
2024/04/20 11:08:16;;;;;;;10.05;1.55;;;9.30;1.00;;;;;;22184383;26;19992;-76
2024/04/20 11:18:17;;;;;;;14.30;1.73;;;9.30;1.00;;;;;;22217658;26;19992;-75
2024/04/20 11:28:18;;;;;;;5.13;0.93;;;9.20;1.00;;;;;;22221644;26;20022;-77
2024/04/20 11:38:22;;;;;;;9.27;1.63;;;10.50;1.00;;;;;;22155983;26;19996;-77
2024/04/20 11:48:28;;;;;;;7.13;1.40;;;10.70;1.00;;;;;;22175771;26;20015;-78
2024/04/20 11:58:29;;;;;;;8.27;1.35;;;10.50;1.00;;;;;;22232549;26;20015;-76
2024/04/20 12:08:30;;;;;;;9.65;1.27;;;12.10;1.00;;;;;;22163080;26;20011;-79
2024/04/20 12:18:31;;;;;;;4.97;0.95;;;11.70;1.00;;;;;;22210039;26;20059;-82
2024/04/20 12:28:33;;;;;;;7.80;1.15;;;11.80;1.00;;;;;;22176478;26;20012;-79
2024/04/20 12:38:34;;;;;;;10.68;2.35;;;12.80;1.00;;;;;;22197062;26;20721;-79
2024/04/20 12:48:35;;;;;;;5.75;0.80;;;13.70;1.00;;;;;;22223497;26;20016;-80
2024/04/20 12:58:36;;;;;;;5.03;0.77;;;12.30;1.00;;;;;;22218336;26;20015;-78
2024/04/20 13:08:37;;;;;;;7.95;1.13;;;10.60;1.00;;;;;;22217454;26;20353;-79
2024/04/20 13:18:38;;;;;;;4.82;1.13;;;11.90;1.00;;;;;;22209755;26;20777;-79
2024/04/20 13:28:41;;;;;;;5.20;0.75;;;11.00;1.00;;;;;;22222253;26;20468;-79
2024/04/20 13:38:43;;;;;;;5.43;1.02;;;12.00;1.00;;;;;;22230556;26;20504;-79
2024/04/20 13:48:44;;;;;;;7.00;1.25;;;11.60;1.00;;;;;;22214723;26;20012;-79
2024/04/20 13:58:45;;;;;;;3.60;0.68;;;11.80;1.00;;;;;;22124470;26;20099;-79
2024/04/20 14:08:46;;;;;;;2.42;1.05;;;12.60;1.00;;;;;;22200677;26;20139;-78
2024/04/20 14:18:49;;;;;;;7.22;0.88;;;11.80;1.00;;;;;;22220216;26;19996;-79
2024/04/20 14:28:50;;;;;;;4.05;1.00;;;11.60;1.00;;;;;;22230570;26;20015;-79
2024/04/20 14:38:51;;;;;;;4.53;0.68;;;11.60;1.00;;;;;;22214445;26;20000;-78
2024/04/20 14:48:52;;;;;;;7.57;0.85;;;11.30;1.00;;;;;;22220150;26;20015;-79
2024/04/20 14:58:53;;;;;;;7.40;1.30;;;11.30;1.00;;;;;;22216446;26;20000;-78
2024/04/20 15:08:54;;;;;;;9.55;1.23;;;10.60;1.00;;;;;;22195978;26;19997;-80
2024/04/20 15:18:56;;;;;;;8.40;1.30;;;10.60;1.00;;;;;;22216577;26;20004;-79
2024/04/20 15:28:57;;;;;;;5.20;1.00;;;11.00;1.00;;;;;;22185138;26;20005;-78
2024/04/20 15:38:58;;;;;;;5.05;1.13;;;11.20;1.00;;;;;;22196898;26;20081;-78
2024/04/20 15:48:59;;;;;;;3.60;0.60;;;11.40;1.00;;;;;;22193746;26;20008;-78
2024/04/20 15:59:00;;;;;;;3.38;0.90;;;10.90;1.00;;;;;;22191719;26;20455;-78
2024/04/20 16:09:03;;;;;;;4.32;0.80;;;10.50;1.00;;;;;;22209245;26;20000;-78
2024/04/20 16:19:04;;;;;;;5.57;1.00;;;10.50;1.00;;;;;;22253227;26;20544;-77
2024/04/20 16:29:05;;;;;;;4.60;0.82;;;10.30;1.00;;;;;;22267425;26;19996;-78
2024/04/20 16:39:06;;;;;;;2.00;0.80;;;10.30;1.00;;;;;;22215560;26;20015;-78
2024/04/20 16:49:07;;;;;;;7.60;1.05;;;10.00;1.00;;;;;;22207426;26;20352;-77
2024/04/20 16:59:08;;;;;;;8.68;1.17;;;9.80;1.00;;;;;;22207985;26;19996;-78
2024/04/20 17:09:11;;;;;;;8.07;1.08;;;9.70;1.00;;;;;;22219575;26;20085;-78
2024/04/20 17:19:13;;;;;;;5.15;1.10;;;9.40;1.00;;;;;;22226292;26;20007;-78
2024/04/20 17:29:14;;;;;;;9.68;1.23;;;9.10;1.00;;;;;;22202489;26;19997;-79
2024/04/20 17:39:16;;;;;;;10.55;1.23;;;8.80;1.00;;;;;;22231174;26;19996;-77
2024/04/20 17:49:16;;;;;;;8.45;1.30;;;8.60;1.00;;;;;;22215610;26;20015;-77
2024/04/20 17:59:17;;;;;;;10.02;1.40;;;8.50;1.00;;;;;;22164381;26;20028;-76
2024/04/20 18:09:18;;;;;;;8.43;1.60;;;8.60;1.00;;;;;;22177077;26;20449;-77
2024/04/20 18:19:19;;;;;;;10.80;1.50;;;8.50;1.00;;;;;;22185420;26;20558;-77
2024/04/20 18:29:20;;;;;;;15.93;5.30;;;8.50;1.00;;;;;;22198518;26;20004;-77
2024/04/20 18:39:21;;;;;;;15.82;2.58;;;8.30;1.00;;;;;;22189360;26;20015;-76
2024/04/20 18:49:22;;;;;;;9.63;1.90;;;8.20;1.00;;;;;;22178669;26;20008;-77
2024/04/20 18:59:24;;;;;;;7.88;1.92;;;8.00;1.00;;;;;;22183494;26;20044;-81
2024/04/20 19:09:25;;;;;;;9.40;2.42;;;8.00;1.00;;;;;;22174694;26;20460;-77
2024/04/20 19:19:27;;;;;;;8.40;1.75;;;7.80;1.00;;;;;;22182062;26;20450;-76
2024/04/20 19:29:28;;;;;;;11.57;2.97;;;7.90;1.00;;;;;;22173277;26;20011;-76
2024/04/20 19:39:29;;;;;;;12.15;1.55;;;7.80;1.00;;;;;;22213492;26;20115;-76
2024/04/20 19:49:30;;;;;;;6.55;1.83;;;7.70;1.00;;;;;;22199406;26;19992;-76
2024/04/20 19:59:31;;;;;;;12.30;2.00;;;7.50;1.00;;;;;;22212762;26;20011;-76
2024/04/20 20:09:34;;;;;;;9.65;1.80;;;7.30;1.00;;;;;;22194595;26;20020;-76
2024/04/20 20:19:34;;;;;;;9.10;1.70;;;7.10;1.00;;;;;;22221216;26;20004;-77
2024/04/20 20:29:36;;;;;;;12.60;2.28;;;7.00;1.00;;;;;;22225689;26;20011;-76
2024/04/20 20:39:38;;;;;;;10.13;1.80;;;7.00;1.00;;;;;;22228784;26;20000;-76
2024/04/20 20:49:39;;;;;;;7.88;1.65;;;7.00;1.00;;;;;;22224139;26;20463;-76
2024/04/20 20:59:40;;;;;;;8.32;2.25;;;7.10;1.00;;;;;;22217384;26;20008;-76
2024/04/20 21:09:41;;;;;;;7.32;1.60;;;7.00;1.00;;;;;;22176657;26;20082;-76
2024/04/20 21:19:45;;;;;;;11.82;2.10;;;7.00;1.00;;;;;;22211756;26;20343;-76
2024/04/20 21:29:46;;;;;;;8.77;1.50;;;7.00;1.00;;;;;;22211797;26;20011;-78
2024/04/20 21:39:47;;;;;;;7.78;1.48;;;6.90;1.00;;;;;;22197433;26;20000;-77
2024/04/20 21:49:48;;;;;;;8.60;1.83;;;7.00;1.00;;;;;;22208172;26;20015;-76
2024/04/20 21:59:52;;;;;;;10.75;1.70;;;7.00;1.00;;;;;;22213766;26;20015;-76
2024/04/20 22:09:53;;;;;;;5.57;1.55;;;7.00;1.00;;;;;;22181977;26;20513;-77
2024/04/20 22:19:54;;;;;;;8.73;1.67;;;6.90;1.00;;;;;;22206787;26;20004;-77
2024/04/20 22:29:56;;;;;;;7.75;1.10;;;6.90;1.00;;;;;;22188919;26;20015;-76
2024/04/20 22:39:57;;;;;;;3.83;0.90;;;6.90;1.00;;;;;;22173061;26;20005;-74
2024/04/20 22:49:58;;;;;;;6.22;1.27;;;7.00;1.00;;;;;;22181137;26;20000;-74
2024/04/20 22:59:59;;;;;;;6.25;1.13;;;7.00;1.00;;;;;;22198766;26;20440;-74
2024/04/20 23:10:00;;;;;;;10.45;1.38;;;6.90;1.00;;;;;;22150122;26;20028;-74
2024/04/20 23:20:01;;;;;;;8.40;2.13;;;6.70;1.00;;;;;;22200314;26;20004;-73
2024/04/20 23:30:02;;;;;;;6.65;1.38;;;6.40;1.00;;;;;;22202680;26;19996;-74
2024/04/20 23:40:05;;;;;;;9.13;1.33;;;6.30;1.00;;;;;;22193215;26;19992;-76
2024/04/20 23:50:06;;;;;;;9.93;1.42;;;6.20;1.00;;;;;;22175980;26;20019;-77
